Time;durP1;ratioP1;P1;durP2;ratioP2;P2;SDS_P1;SDS_P2;PMS_P1;PMS_P2;Temp;Humidity;BMP_temperature;BMP_pressure;BME280_temperature;BME280_humidity;BME280_pressure;Samples;Min_cycle;Max_cycle;Signal;HPM_P1;HPM_P2
2023/05/19 00:02:10;;;;;;;3.22;3.00;;;;;;;16.65;64.39;100417.44;5035238;28;20025;-61
2023/05/19 00:04:36;;;;;;;3.85;2.95;;;;;;;16.58;64.67;100410.91;5053183;28;20036;-61
2023/05/19 00:07:02;;;;;;;4.28;2.80;;;;;;;16.35;64.77;100386.94;5035300;28;20033;-62
2023/05/19 00:09:28;;;;;;;2.63;2.42;;;;;;;16.42;64.69;100412.41;5052653;28;20448;-61
2023/05/19 00:11:55;;;;;;;3.13;2.30;;;;;;;16.44;64.65;100421.22;5053043;28;20032;-61
2023/05/19 00:14:21;;;;;;;4.03;2.40;;;;;;;16.47;64.77;100429.00;5053093;28;20497;-62
2023/05/19 00:16:47;;;;;;;5.05;2.15;;;;;;;16.46;64.49;100435.41;5052658;28;20077;-62
2023/05/19 00:19:13;;;;;;;2.25;2.03;;;;;;;16.49;64.39;100427.00;5052965;28;20475;-61
2023/05/19 00:21:39;;;;;;;5.28;2.13;;;;;;;16.41;64.03;100429.63;5052927;28;20025;-62
2023/05/19 00:24:05;;;;;;;5.18;1.85;;;;;;;16.45;64.53;100454.47;5052372;28;20076;-61
2023/05/19 00:26:31;;;;;;;2.40;2.20;;;;;;;16.38;64.46;100453.38;5051978;28;20033;-60
2023/05/19 00:28:57;;;;;;;3.03;1.85;;;;;;;16.30;64.35;100454.09;5052510;28;20057;-61
2023/05/19 00:31:23;;;;;;;3.95;2.30;;;;;;;16.19;64.50;100447.00;5052450;28;20069;-68
2023/05/19 00:33:48;;;;;;;4.70;2.03;;;;;;;15.93;64.71;100421.47;5052235;28;20033;-62
2023/05/19 00:36:13;;;;;;;2.30;2.08;;;;;;;15.83;64.93;100419.75;5052587;28;20452;-61
2023/05/19 00:38:39;;;;;;;4.18;2.92;;;;;;;16.06;64.90;100466.22;5052774;28;20040;-61
2023/05/19 00:41:06;;;;;;;3.55;2.30;;;;;;;16.09;64.71;100465.94;5052538;28;20032;-62
2023/05/19 00:43:34;;;;;;;3.20;2.00;;;;;;;16.07;64.60;100462.53;5051713;28;20044;-62
2023/05/19 00:46:01;;;;;;;3.50;2.05;;;;;;;16.09;64.44;100467.78;5033776;28;20041;-61
2023/05/19 00:48:26;;;;;;;3.78;1.70;;;;;;;16.10;64.15;100459.53;5052589;28;20024;-62
2023/05/19 00:50:53;;;;;;;4.28;2.10;;;;;;;16.16;64.08;100469.78;5052456;28;20360;-61
2023/05/19 00:53:19;;;;;;;2.63;1.83;;;;;;;15.91;64.23;100426.16;5051981;28;20069;-62
2023/05/19 00:55:46;;;;;;;1.95;1.70;;;;;;;16.08;64.19;100448.00;5052058;28;20075;-62
2023/05/19 00:58:13;;;;;;;4.15;2.00;;;;;;;16.12;64.07;100471.03;5052947;28;20120;-61
2023/05/19 01:00:39;;;;;;;2.15;1.95;;;;;;;16.08;63.99;100464.22;5052342;28;20025;-62
2023/05/19 01:03:12;;;;;;;4.38;2.05;;;;;;;16.05;64.09;100472.63;5051707;28;20037;-63
2023/05/19 01:05:43;;;;;;;1.83;1.73;;;;;;;16.09;64.04;100474.03;5051722;28;20035;-61
2023/05/19 01:08:09;;;;;;;6.38;1.90;;;;;;;16.02;63.78;100464.81;5034904;28;20379;-62
2023/05/19 01:10:35;;;;;;;2.20;1.65;;;;;;;15.99;63.75;100479.44;5052020;28;20029;-62
2023/05/19 01:13:05;;;;;;;2.00;1.67;;;;;;;15.96;63.93;100479.72;5051751;28;20448;-62
2023/05/19 01:15:44;;;;;;;3.13;1.75;;;;;;;15.95;64.31;100479.88;5051521;28;20065;-61
2023/05/19 01:18:19;;;;;;;3.13;1.70;;;;;;;15.86;64.43;100482.41;5052118;28;20033;-62
2023/05/19 01:20:51;;;;;;;2.70;1.55;;;;;;;15.70;64.39;100466.78;5052497;28;20067;-62
2023/05/19 01:23:28;;;;;;;5.47;1.58;;;;;;;15.80;64.61;100482.97;5052195;28;20037;-62
2023/05/19 01:26:03;;;;;;;1.83;1.40;;;;;;;15.76;64.90;100497.75;5051394;28;20060;-61
2023/05/19 01:28:28;;;;;;;2.63;1.00;;;;;;;15.60;64.52;100492.91;5052219;28;20041;-62
2023/05/19 01:30:57;;;;;;;2.47;1.10;;;;;;;15.40;65.21;100509.06;5051466;28;20025;-62
2023/05/19 01:33:23;;;;;;;1.45;1.10;;;;;;;15.27;65.53;100490.44;5051556;28;20456;-61
2023/05/19 01:35:50;;;;;;;1.67;1.30;;;;;;;15.18;65.94;100502.03;5051659;28;20157;-70
2023/05/19 01:38:17;;;;;;;3.20;1.20;;;;;;;14.97;66.04;100496.72;5052022;28;20040;-62
2023/05/19 01:40:44;;;;;;;1.98;0.98;;;;;;;14.98;66.17;100510.09;5055715;28;20533;-62
2023/05/19 01:43:12;;;;;;;1.52;1.42;;;;;;;14.86;65.67;100493.16;5055273;28;20106;-62
2023/05/19 01:45:39;;;;;;;1.92;1.83;;;;;;;14.84;65.88;100507.72;5055255;28;20112;-63
2023/05/19 01:48:05;;;;;;;10.07;1.95;;;;;;;14.74;64.73;100522.03;5021604;28;20345;-63
2023/05/19 01:50:32;;;;;;;3.72;2.47;;;;;;;14.62;64.27;100517.66;5055293;28;20021;-64
2023/05/19 01:52:58;;;;;;;4.55;2.40;;;;;;;14.52;64.39;100517.59;5038214;28;20033;-62
2023/05/19 01:55:23;;;;;;;2.80;2.13;;;;;;;14.52;64.29;100520.28;5055431;28;20021;-62
2023/05/19 01:58:15;;;;;;;5.53;2.78;;;;;;;14.57;64.07;100531.53;5037189;28;20415;-62
2023/05/19 02:01:06;;;;;;;3.08;2.75;;;;;;;14.50;62.44;100517.75;5024945;28;20049;-61
2023/05/19 02:03:56;;;;;;;4.22;2.60;;;;;;;14.44;61.17;100530.91;5054885;28;20120;-61
2023/05/19 02:06:30;;;;;;;4.45;3.13;;;;;;;14.19;60.30;100535.69;5054856;28;20025;-61
2023/05/19 02:09:02;;;;;;;6.45;3.30;;;;;;;14.16;60.44;100530.56;5055641;28;20040;-60
2023/05/19 02:11:36;;;;;;;5.45;2.75;;;;;;;14.03;59.51;100538.81;5055240;28;20033;-61
2023/05/19 02:14:10;;;;;;;6.72;2.80;;;;;;;13.84;59.14;100524.19;5054671;28;20029;-61
2023/05/19 02:16:37;;;;;;;8.70;3.17;;;;;;;13.86;58.82;100541.06;5055620;28;20460;-60
2023/05/19 02:19:03;;;;;;;4.75;2.92;;;;;;;13.76;59.09;100540.97;5054908;28;20040;-62
2023/05/19 02:21:29;;;;;;;5.20;2.63;;;;;;;13.62;58.29;100522.41;5054596;28;20035;-60
2023/05/19 02:23:55;;;;;;;4.70;2.75;;;;;;;13.58;58.11;100537.97;5054675;28;20033;-64
2023/05/19 02:26:21;;;;;;;6.93;2.90;;;;;;;13.58;58.19;100547.88;5055241;28;20055;-73
2023/05/19 02:28:47;;;;;;;3.42;2.70;;;;;;;13.55;58.25;100542.75;5054430;28;20334;-63
2023/05/19 02:31:12;;;;;;;7.15;3.00;;;;;;;13.46;58.32;100538.97;5054553;28;20119;-61
2023/05/19 02:33:37;;;;;;;5.00;2.92;;;;;;;13.43;58.47;100540.09;5054943;28;20345;-61
2023/05/19 02:36:04;;;;;;;5.60;3.00;;;;;;;13.31;58.69;100533.84;5037517;28;20047;-62
2023/05/19 02:38:29;;;;;;;4.75;2.85;;;;;;;13.36;58.98;100544.22;5054130;28;20049;-61
2023/05/19 02:40:55;;;;;;;5.15;3.30;;;;;;;13.10;59.02;100514.06;5054226;28;20452;-61
2023/05/19 02:43:21;;;;;;;5.30;2.70;;;;;;;13.34;59.05;100555.09;5037529;28;20028;-62
2023/05/19 02:45:46;;;;;;;5.13;3.20;;;;;;;13.32;59.30;100546.31;5054705;28;20116;-64
2023/05/19 02:48:12;;;;;;;4.03;2.97;;;;;;;13.34;58.16;100544.34;5053691;28;20566;-63
2023/05/19 02:50:38;;;;;;;5.70;3.13;;;;;;;13.37;58.14;100561.22;5053310;28;20100;-61
2023/05/19 02:53:03;;;;;;;6.15;3.03;;;;;;;13.28;57.92;100550.22;5037237;28;20026;-61
2023/05/19 02:55:29;;;;;;;6.65;3.17;;;;;;;13.34;57.92;100552.41;5054856;28;20425;-60
2023/05/19 02:57:54;;;;;;;3.15;2.83;;;;;;;13.44;57.25;100557.06;5054296;28;20120;-63
2023/05/19 03:00:20;;;;;;;3.10;2.80;;;;;;;13.40;57.69;100552.88;5054377;28;20029;-62
2023/05/19 03:02:46;;;;;;;5.65;3.28;;;;;;;13.34;57.35;100532.72;5053214;28;20021;-62
2023/05/19 03:05:13;;;;;;;8.20;2.63;;;;;;;13.41;57.53;100531.25;5051193;28;20065;-64
2023/05/19 03:07:38;;;;;;;6.97;3.10;;;;;;;13.55;58.01;100561.56;5051855;28;20125;-63
2023/05/19 03:10:05;;;;;;;4.43;3.35;;;;;;;13.61;57.92;100563.75;5052526;28;20404;-60
2023/05/19 03:12:32;;;;;;;4.63;3.13;;;;;;;13.66;58.15;100571.47;5051813;28;20029;-62
2023/05/19 03:14:58;;;;;;;6.50;3.67;;;;;;;13.63;58.53;100564.50;5052351;28;20436;-64
2023/05/19 03:17:24;;;;;;;5.05;3.60;;;;;;;13.66;58.54;100571.47;5052315;28;20049;-63
2023/05/19 03:19:50;;;;;;;5.40;3.00;;;;;;;13.52;58.61;100568.09;5017704;28;20063;-63
2023/05/19 03:22:17;;;;;;;5.68;3.20;;;;;;;13.50;59.41;100580.78;5052813;28;20350;-59
2023/05/19 03:24:43;;;;;;;5.32;3.10;;;;;;;13.41;59.14;100578.81;5052528;28;20036;-61
2023/05/19 03:27:08;;;;;;;6.35;3.28;;;;;;;13.31;59.40;100576.00;5051825;28;20036;-60
2023/05/19 03:29:34;;;;;;;6.13;3.00;;;;;;;13.21;59.52;100578.56;5052083;28;20055;-60
2023/05/19 03:32:00;;;;;;;5.35;3.50;;;;;;;12.98;59.95;100554.38;5052031;28;20025;-59
2023/05/19 03:34:25;;;;;;;7.20;3.45;;;;;;;13.07;60.15;100588.59;5033293;28;20029;-58
2023/05/19 03:36:51;;;;;;;6.15;3.47;;;;;;;13.03;60.13;100581.75;5051715;28;20028;-61
2023/05/19 03:39:17;;;;;;;4.95;3.70;;;;;;;12.90;60.46;100562.19;5051974;28;20366;-59
2023/05/19 03:41:42;;;;;;;5.10;3.50;;;;;;;13.17;60.44;100587.88;5052585;28;20856;-60
2023/05/19 03:44:08;;;;;;;7.00;3.33;;;;;;;13.23;60.43;100591.91;5053080;28;20025;-62
2023/05/19 03:46:33;;;;;;;7.57;3.67;;;;;;;13.17;60.62;100598.63;5053163;28;20047;-59
2023/05/19 03:48:58;;;;;;;5.75;3.55;;;;;;;13.24;61.32;100605.22;5053542;28;20359;-60
2023/05/19 03:51:24;;;;;;;7.25;4.18;;;;;;;13.24;60.81;100610.59;5052944;28;20086;-66
2023/05/19 03:53:50;;;;;;;7.57;4.18;;;;;;;13.22;60.91;100612.53;5053146;28;20032;-60
2023/05/19 03:56:17;;;;;;;4.97;3.40;;;;;;;13.24;60.33;100604.38;5053544;28;20356;-57
2023/05/19 03:58:43;;;;;;;6.15;3.67;;;;;;;13.14;60.63;100610.50;5052827;28;20067;-59
2023/05/19 04:01:11;;;;;;;7.22;3.97;;;;;;;12.96;61.47;100610.09;5052758;28;20068;-57
2023/05/19 04:03:37;;;;;;;10.65;4.28;;;;;;;12.89;62.56;100608.84;5053412;28;20112;-57
2023/05/19 04:06:02;;;;;;;6.55;4.18;;;;;;;12.98;62.27;100610.81;5052848;28;21999;-55
2023/05/19 04:08:28;;;;;;;6.95;4.13;;;;;;;13.15;61.82;100617.56;5035002;28;20095;-58
2023/05/19 04:10:54;;;;;;;10.38;4.55;;;;;;;13.16;62.00;100613.03;5053512;28;20025;-59
2023/05/19 04:13:20;;;;;;;5.55;4.15;;;;;;;13.20;61.67;100617.19;5053280;28;20040;-60
2023/05/19 04:15:46;;;;;;;6.50;4.53;;;;;;;13.23;61.60;100605.34;5052303;28;20507;-60
2023/05/19 04:18:12;;;;;;;6.20;4.63;;;;;;;13.30;61.28;100604.75;5052601;28;20041;-57
2023/05/19 04:20:37;;;;;;;5.13;4.40;;;;;;;13.43;61.08;100604.66;5053151;28;20068;-60
2023/05/19 04:23:03;;;;;;;4.80;4.18;;;;;;;13.49;60.70;100617.59;5052891;28;20040;-59
2023/05/19 04:25:28;;;;;;;5.70;4.35;;;;;;;13.55;60.74;100618.94;5051945;28;20032;-57
2023/05/19 04:27:56;;;;;;;7.20;4.53;;;;;;;13.56;60.79;100603.63;5052908;28;20037;-60
2023/05/19 04:30:23;;;;;;;7.72;4.55;;;;;;;13.58;61.03;100623.19;5053320;28;20029;-56
2023/05/19 04:32:51;;;;;;;9.30;5.15;;;;;;;13.63;60.92;100619.16;5052534;28;20033;-61
2023/05/19 04:35:18;;;;;;;6.30;4.88;;;;;;;13.60;60.70;100613.16;5052306;28;20029;-62
2023/05/19 04:37:47;;;;;;;8.13;5.50;;;;;;;13.60;61.08;100615.88;5052750;28;20040;-58
2023/05/19 04:40:12;;;;;;;8.35;4.93;;;;;;;13.61;60.93;100629.19;5052421;28;20037;-59
2023/05/19 04:42:44;;;;;;;7.95;5.30;;;;;;;13.58;60.72;100615.13;5052552;28;20345;-60
2023/05/19 04:45:12;;;;;;;8.60;5.10;;;;;;;13.44;61.59;100617.13;5052150;28;20061;-60
2023/05/19 04:47:39;;;;;;;8.73;5.25;;;;;;;13.40;61.64;100636.28;5052706;28;20033;-57
2023/05/19 04:50:06;;;;;;;6.80;4.95;;;;;;;13.39;62.36;100640.81;5052648;28;20033;-61
2023/05/19 04:52:32;;;;;;;7.60;5.15;;;;;;;13.37;62.08;100631.13;5052352;28;20071;-60
2023/05/19 04:54:58;;;;;;;7.13;5.43;;;;;;;13.42;62.09;100637.00;5052079;28;20039;-69
2023/05/19 04:57:23;;;;;;;6.07;5.18;;;;;;;13.44;62.10;100621.63;5052269;28;20078;-56
2023/05/19 04:59:49;;;;;;;8.52;5.43;;;;;;;13.47;62.21;100632.13;5035247;28;20036;-57
2023/05/19 05:02:14;;;;;;;6.65;5.20;;;;;;;13.42;62.97;100624.44;5052233;28;20052;-57
2023/05/19 05:04:42;;;;;;;6.63;5.55;;;;;;;13.44;62.72;100624.31;5051881;28;20337;-60
2023/05/19 05:07:09;;;;;;;7.97;5.55;;;;;;;13.41;63.08;100627.22;5052017;28;20033;-59
2023/05/19 05:09:34;;;;;;;6.68;5.43;;;;;;;13.45;63.19;100628.72;5052464;28;20029;-59
2023/05/19 05:12:01;;;;;;;9.25;5.32;;;;;;;13.49;62.79;100622.09;5051701;28;20047;-60
2023/05/19 05:14:27;;;;;;;8.73;6.25;;;;;;;13.46;62.59;100625.91;5051508;28;20064;-57
2023/05/19 05:16:52;;;;;;;6.18;5.50;;;;;;;13.47;63.20;100619.56;5051421;28;20479;-59
2023/05/19 05:19:18;;;;;;;6.32;5.65;;;;;;;13.58;61.98;100624.06;5052080;28;20964;-59
2023/05/19 05:21:44;;;;;;;7.50;5.80;;;;;;;13.66;61.79;100630.66;5051165;28;20040;-58
2023/05/19 05:24:10;;;;;;;9.70;5.95;;;;;;;13.61;62.77;100642.66;5051356;28;20025;-61
2023/05/19 05:26:36;;;;;;;8.95;6.40;;;;;;;13.50;62.59;100631.88;5051636;28;20032;-58
2023/05/19 05:29:02;;;;;;;9.52;6.45;;;;;;;13.55;62.36;100648.53;5051093;28;20041;-59
2023/05/19 05:31:28;;;;;;;8.20;6.10;;;;;;;13.48;62.72;100637.41;5034501;28;20415;-61
2023/05/19 05:33:54;;;;;;;7.68;5.72;;;;;;;13.53;62.93;100642.44;5051754;28;20025;-60
2023/05/19 05:36:19;;;;;;;9.00;6.40;;;;;;;13.53;63.02;100637.03;5051283;28;20039;-60
2023/05/19 05:38:45;;;;;;;7.40;6.35;;;;;;;13.57;63.44;100640.31;5051764;28;20409;-59
2023/05/19 05:41:11;;;;;;;8.20;6.57;;;;;;;13.67;62.95;100651.22;5051500;28;20029;-59
2023/05/19 05:43:36;;;;;;;8.50;6.65;;;;;;;13.44;62.43;100610.88;5051593;28;20032;-59
2023/05/19 05:46:02;;;;;;;7.45;6.45;;;;;;;13.68;62.20;100648.41;5051651;28;20102;-57
2023/05/19 05:48:27;;;;;;;8.05;7.25;;;;;;;13.61;62.65;100645.34;5051643;28;20025;-59
2023/05/19 05:50:55;;;;;;;7.70;6.88;;;;;;;13.65;62.31;100643.28;5051671;28;20025;-59
2023/05/19 05:53:23;;;;;;;11.00;7.85;;;;;;;13.68;62.22;100653.78;5051125;28;20094;-60
2023/05/19 05:55:49;;;;;;;9.20;7.35;;;;;;;13.64;62.53;100655.03;5051389;28;20036;-59
2023/05/19 05:58:15;;;;;;;12.52;7.32;;;;;;;13.59;62.72;100650.00;5051762;28;20029;-61
2023/05/19 06:00:42;;;;;;;9.95;7.80;;;;;;;13.74;62.69;100660.50;5051508;28;20029;-62
2023/05/19 06:03:08;;;;;;;9.05;7.47;;;;;;;13.76;62.30;100658.56;5050901;28;20029;-57
2023/05/19 06:05:34;;;;;;;14.90;8.15;;;;;;;13.90;62.37;100670.88;5051357;28;20037;-61
2023/05/19 06:08:00;;;;;;;9.00;8.02;;;;;;;13.82;61.96;100627.56;5052207;28;20037;-56
2023/05/19 06:10:27;;;;;;;9.75;8.55;;;;;;;14.16;61.35;100665.22;5051047;28;20356;-53
2023/05/19 06:12:52;;;;;;;14.30;8.82;;;;;;;14.16;61.27;100644.50;5051360;28;20036;-61
2023/05/19 06:15:18;;;;;;;12.77;8.32;;;;;;;14.46;60.82;100669.03;5051466;28;20029;-58
2023/05/19 06:17:43;;;;;;;13.73;9.02;;;;;;;14.58;60.14;100659.88;5033524;28;20064;-61
2023/05/19 06:20:09;;;;;;;12.82;8.82;;;;;;;14.82;59.63;100671.47;5051147;28;20028;-60
2023/05/19 06:22:36;;;;;;;10.77;9.07;;;;;;;14.88;59.04;100650.22;5051358;28;20021;-61
2023/05/19 06:25:02;;;;;;;12.57;9.43;;;;;;;15.01;58.66;100633.84;5052218;28;20033;-58
2023/05/19 06:27:30;;;;;;;15.60;8.80;;;;;;;15.39;57.67;100657.59;5054838;28;20033;-59
2023/05/19 06:29:55;;;;;;;13.35;9.50;;;;;;;15.57;56.81;100657.84;5054476;28;20048;-60
2023/05/19 06:32:21;;;;;;;15.02;9.25;;;;;;;15.74;56.93;100650.94;5054950;28;20025;-59
2023/05/19 06:34:52;;;;;;;11.85;8.98;;;;;;;15.98;56.65;100652.44;5021504;28;20029;-59
2023/05/19 06:37:22;;;;;;;15.60;8.52;;;;;;;16.12;54.84;100659.28;5055134;28;20032;-60
2023/05/19 06:39:52;;;;;;;11.20;9.45;;;;;;;16.16;55.16;100660.72;5054490;28;20033;-57
2023/05/19 06:42:21;;;;;;;12.55;9.15;;;;;;;16.31;54.52;100664.72;5054473;28;20041;-61
2023/05/19 06:44:48;;;;;;;13.82;9.40;;;;;;;16.42;53.99;100666.44;5055132;28;20037;-58
2023/05/19 06:47:14;;;;;;;16.15;8.85;;;;;;;16.50;53.84;100661.16;5036891;28;20522;-60
2023/05/19 06:49:39;;;;;;;17.02;9.15;;;;;;;16.56;53.36;100656.19;5054240;28;20025;-60
2023/05/19 06:52:05;;;;;;;11.82;8.73;;;;;;;16.70;53.17;100654.88;5054396;28;20368;-60
2023/05/19 06:54:30;;;;;;;13.20;8.57;;;;;;;16.88;52.35;100657.72;5055052;28;20021;-66
2023/05/19 06:56:56;;;;;;;15.13;8.73;;;;;;;17.15;51.72;100665.09;5036830;28;20168;-58
2023/05/19 06:59:21;;;;;;;16.85;10.13;;;;;;;17.26;51.38;100664.06;5054278;28;20369;-59
2023/05/19 07:01:47;;;;;;;17.25;10.13;;;;;;;17.23;50.75;100658.97;5053932;28;20433;-59
2023/05/19 07:04:13;;;;;;;13.20;9.75;;;;;;;17.31;50.90;100666.34;5054584;28;20098;-60
2023/05/19 07:06:38;;;;;;;13.60;9.95;;;;;;;17.29;50.71;100658.38;5036027;28;20037;-62
2023/05/19 07:09:04;;;;;;;13.50;8.95;;;;;;;17.45;50.16;100665.84;5048623;28;20083;-60
2023/05/19 07:11:30;;;;;;;14.77;9.27;;;;;;;17.71;49.51;100667.03;5035780;28;20467;-58
2023/05/19 07:13:55;;;;;;;12.65;8.90;;;;;;;17.76;48.71;100667.44;5054278;28;20033;-60
2023/05/19 07:16:21;;;;;;;14.65;9.38;;;;;;;17.73;49.03;100673.16;5053855;28;20368;-59
2023/05/19 07:18:46;;;;;;;12.38;9.55;;;;;;;17.59;49.24;100658.25;5051999;28;20426;-59
2023/05/19 07:21:12;;;;;;;12.45;9.40;;;;;;;17.38;49.66;100677.44;5053472;28;20047;-57
2023/05/19 07:23:37;;;;;;;11.73;9.65;;;;;;;16.93;50.32;100668.97;5052866;28;20032;-60
2023/05/19 07:26:03;;;;;;;21.85;10.65;;;;;;;16.76;50.74;100674.09;5053818;28;20476;-60
2023/05/19 07:28:28;;;;;;;15.90;10.38;;;;;;;16.78;50.79;100680.22;5035821;28;20507;-59
2023/05/19 07:30:54;;;;;;;18.08;10.48;;;;;;;16.86;50.18;100670.53;5053449;28;20081;-60
2023/05/19 07:33:19;;;;;;;18.40;11.20;;;;;;;17.02;49.52;100684.34;5053710;28;20029;-58
2023/05/19 07:35:45;;;;;;;16.90;10.45;;;;;;;17.22;48.83;100685.16;5052923;28;20036;-61
2023/05/19 07:38:11;;;;;;;14.23;10.63;;;;;;;17.42;47.79;100668.88;5053129;28;20033;-59
2023/05/19 07:40:36;;;;;;;17.48;9.85;;;;;;;17.69;46.82;100663.63;5053741;28;20059;-62
2023/05/19 07:43:02;;;;;;;14.07;9.30;;;;;;;17.84;45.78;100666.69;5053429;28;20041;-59
2023/05/19 07:45:27;;;;;;;11.82;9.32;;;;;;;17.90;45.78;100671.50;5053490;28;20029;-58
2023/05/19 07:47:53;;;;;;;16.10;9.55;;;;;;;18.00;45.72;100674.16;5053042;28;20086;-61
2023/05/19 07:50:19;;;;;;;16.77;9.05;;;;;;;18.49;45.00;100674.69;5053061;28;20036;-61
2023/05/19 07:52:45;;;;;;;16.67;9.27;;;;;;;19.23;43.84;100676.31;5035621;28;20063;-59
2023/05/19 07:55:10;;;;;;;13.77;8.50;;;;;;;19.84;42.13;100676.31;5053511;28;20043;-62
2023/05/19 07:57:36;;;;;;;15.82;8.52;;;;;;;20.32;40.25;100673.06;5053241;28;20031;-61
2023/05/19 08:00:06;;;;;;;15.32;7.40;;;;;;;21.00;38.29;100684.72;5053003;28;20364;-59
2023/05/19 08:02:32;;;;;;;12.40;6.65;;;;;;;21.58;34.51;100676.41;5053053;28;20385;-60
2023/05/19 08:04:58;;;;;;;9.65;6.10;;;;;;;22.14;33.48;100669.19;5052606;28;20310;-56
2023/05/19 08:07:23;;;;;;;15.18;6.13;;;;;;;23.10;31.46;100666.09;5052755;28;20475;-59
2023/05/19 08:09:49;;;;;;;8.85;6.05;;;;;;;24.27;27.63;100651.88;5053258;28;20112;-60
2023/05/19 08:12:15;;;;;;;10.82;4.85;;;;;;;25.86;24.78;100663.44;5053302;28;20040;-62
2023/05/19 08:14:40;;;;;;;12.40;4.88;;;;;;;26.30;23.28;100664.00;5052688;28;20181;-63
2023/05/19 08:17:06;;;;;;;13.57;4.70;;;;;;;26.15;23.04;100661.41;5052932;28;20103;-61
2023/05/19 08:19:31;;;;;;;8.55;5.13;;;;;;;26.08;22.76;100671.53;5052791;28;20051;-60
2023/05/19 08:21:59;;;;;;;9.32;5.05;;;;;;;25.68;23.42;100676.84;5053116;28;20056;-60
2023/05/19 08:24:28;;;;;;;11.18;4.20;;;;;;;25.55;23.78;100667.47;5052696;28;20144;-61
2023/05/19 08:26:54;;;;;;;11.15;4.78;;;;;;;25.50;23.11;100670.84;5051930;28;20425;-62
2023/05/19 08:29:19;;;;;;;8.68;4.70;;;;;;;24.85;23.37;100670.16;5053107;28;20094;-60
2023/05/19 08:31:45;;;;;;;11.65;4.68;;;;;;;23.85;24.31;100657.06;5052999;28;20033;-61
2023/05/19 08:34:10;;;;;;;10.30;4.30;;;;;;;23.67;25.73;100673.88;5052063;28;20464;-63
2023/05/19 08:36:36;;;;;;;9.00;4.05;;;;;;;23.76;26.11;100675.44;5034994;28;20024;-60
2023/05/19 08:39:02;;;;;;;15.02;4.28;;;;;;;24.04;26.10;100672.03;5052112;28;20369;-60
2023/05/19 08:41:28;;;;;;;8.45;4.57;;;;;;;23.94;25.37;100678.63;5052834;28;20072;-61
2023/05/19 08:43:54;;;;;;;5.47;4.07;;;;;;;23.58;26.33;100684.06;5052211;28;20111;-62
2023/05/19 08:46:23;;;;;;;9.82;4.30;;;;;;;22.97;26.57;100682.25;5034352;28;20067;-61
2023/05/19 08:48:53;;;;;;;8.52;4.03;;;;;;;22.36;27.79;100672.97;5051815;28;20033;-61
2023/05/19 08:51:32;;;;;;;8.45;3.90;;;;;;;22.05;28.41;100673.84;5052566;28;20029;-60
2023/05/19 08:54:11;;;;;;;9.63;4.18;;;;;;;21.71;29.24;100683.22;5033829;28;20376;-59
2023/05/19 08:56:37;;;;;;;5.88;3.45;;;;;;;21.24;29.35;100672.09;5052102;28;20452;-61
2023/05/19 08:59:04;;;;;;;8.77;3.95;;;;;;;21.00;29.45;100653.91;5052231;28;20032;-62
2023/05/19 09:01:29;;;;;;;7.28;3.70;;;;;;;20.96;29.75;100674.31;5052578;28;20029;-61
2023/05/19 09:03:56;;;;;;;10.48;4.18;;;;;;;20.57;29.31;100665.78;5051687;28;20097;-61
2023/05/19 09:06:22;;;;;;;5.20;3.55;;;;;;;20.35;29.66;100675.47;5051573;28;20025;-62
2023/05/19 09:08:47;;;;;;;5.47;3.22;;;;;;;20.17;29.77;100665.56;5051653;28;20040;-62
2023/05/19 09:11:13;;;;;;;6.38;3.13;;;;;;;20.02;30.13;100678.94;5051902;28;20472;-63
2023/05/19 09:13:38;;;;;;;8.20;3.15;;;;;;;19.87;30.43;100665.09;5051639;28;20162;-63
2023/05/19 09:16:05;;;;;;;6.07;2.97;;;;;;;19.79;30.39;100668.63;5051405;28;20044;-59
2023/05/19 09:18:30;;;;;;;5.30;2.80;;;;;;;19.84;30.45;100665.44;5051016;28;20029;-59
2023/05/19 09:20:59;;;;;;;9.18;3.47;;;;;;;19.92;29.88;100673.63;5051347;28;20064;-60
2023/05/19 09:23:32;;;;;;;5.00;2.50;;;;;;;20.12;30.03;100661.63;5051349;28;20051;-60
2023/05/19 09:26:02;;;;;;;6.50;3.05;;;;;;;20.16;29.62;100663.03;5033692;28;20051;-61
2023/05/19 09:28:32;;;;;;;6.40;3.10;;;;;;;20.08;30.06;100672.00;5051754;28;20383;-60
2023/05/19 09:31:03;;;;;;;6.40;2.63;;;;;;;20.04;30.17;100657.88;5051512;28;20131;-63
2023/05/19 09:33:35;;;;;;;9.25;2.70;;;;;;;20.28;29.89;100648.06;5051602;28;20041;-59
2023/05/19 09:36:00;;;;;;;4.28;2.40;;;;;;;20.50;29.25;100654.75;5051801;28;20032;-61
2023/05/19 09:38:26;;;;;;;3.95;2.60;;;;;;;20.57;29.00;100657.63;5051462;28;20464;-61
2023/05/19 09:40:56;;;;;;;4.57;2.80;;;;;;;20.65;28.76;100662.22;5051188;28;20025;-61
2023/05/19 09:43:22;;;;;;;11.82;2.67;;;;;;;20.70;29.03;100651.66;5050942;28;20422;-60
2023/05/19 09:45:53;;;;;;;4.35;2.60;;;;;;;20.72;28.80;100644.19;5050883;28;20112;-60
2023/05/19 09:48:19;;;;;;;7.78;2.83;;;;;;;20.77;29.02;100636.38;5051495;28;20032;-58
2023/05/19 09:50:45;;;;;;;4.72;2.58;;;;;;;20.87;28.74;100649.84;5051906;28;20321;-66
2023/05/19 09:53:12;;;;;;;7.07;2.90;;;;;;;21.01;29.05;100650.16;5051327;28;20036;-61
2023/05/19 09:55:39;;;;;;;9.75;2.45;;;;;;;21.13;28.30;100647.91;5051215;28;20029;-61
2023/05/19 09:58:05;;;;;;;6.93;2.33;;;;;;;21.43;28.47;100642.72;5051562;28;20037;-63
2023/05/19 10:00:32;;;;;;;7.68;2.45;;;;;;;21.70;28.27;100643.34;5053296;28;20095;-61
2023/05/19 10:02:59;;;;;;;9.85;2.88;;;;;;;21.76;27.40;100642.66;5054963;28;20037;-60
2023/05/19 10:05:27;;;;;;;8.05;2.30;;;;;;;21.83;26.88;100645.53;5055038;28;20021;-60
2023/05/19 10:07:53;;;;;;;7.93;2.47;;;;;;;21.57;27.25;100638.41;5055279;28;20101;-61
2023/05/19 10:10:20;;;;;;;4.68;2.30;;;;;;;21.34;27.48;100640.03;5054096;28;20067;-60
2023/05/19 10:12:47;;;;;;;4.82;2.55;;;;;;;21.21;27.67;100646.03;5054652;28;20127;-66
2023/05/19 10:15:17;;;;;;;5.53;2.22;;;;;;;20.96;28.13;100652.53;5055316;28;20029;-60
2023/05/19 10:17:44;;;;;;;5.30;2.42;;;;;;;20.97;28.63;100643.34;5054997;28;20079;-59
2023/05/19 10:20:12;;;;;;;8.32;2.25;;;;;;;21.02;28.53;100640.97;5054436;28;20102;-59
2023/05/19 10:22:43;;;;;;;9.73;2.53;;;;;;;21.37;27.97;100642.41;5054762;28;20029;-61
2023/05/19 10:25:10;;;;;;;5.55;2.72;;;;;;;21.46;27.00;100642.38;5055426;28;20043;-61
2023/05/19 10:27:43;;;;;;;4.43;2.38;;;;;;;21.35;27.66;100630.00;5037148;28;20435;-62
2023/05/19 10:30:17;;;;;;;2.75;2.10;;;;;;;21.52;27.04;100633.53;5054152;28;20040;-61
2023/05/19 10:32:47;;;;;;;5.17;2.43;;;;;;;21.55;27.42;100627.72;5055024;28;20060;-58
2023/05/19 10:35:15;;;;;;;8.32;2.22;;;;;;;21.75;27.07;100641.78;5055285;28;20262;-60
2023/05/19 10:37:56;;;;;;;6.35;1.92;;;;;;;21.84;26.73;100634.41;5054966;28;20036;-61
2023/05/19 10:40:35;;;;;;;3.58;2.17;;;;;;;21.87;26.47;100606.81;5054249;28;20032;-63
2023/05/19 10:43:22;;;;;;;5.25;1.85;;;;;;;22.07;26.39;100637.19;5038346;28;20437;-59
2023/05/19 10:45:51;;;;;;;4.65;1.70;;;;;;;22.17;25.89;100639.66;5055135;28;20028;-68
2023/05/19 10:48:21;;;;;;;3.42;2.20;;;;;;;22.08;26.26;100638.91;5054284;28;20090;-66
2023/05/19 10:50:51;;;;;;;9.45;3.08;;;;;;;22.04;25.65;100631.25;5053801;28;20063;-60
2023/05/19 10:53:19;;;;;;;3.95;2.03;;;;;;;21.93;25.56;100633.34;5054756;28;20127;-62
2023/05/19 10:55:54;;;;;;;5.43;1.85;;;;;;;21.88;25.94;100630.31;5055085;28;20387;-60
2023/05/19 10:58:47;;;;;;;8.63;2.10;;;;;;;22.10;26.25;100638.69;5054205;28;20099;-63
2023/05/19 11:01:17;;;;;;;7.03;2.35;;;;;;;21.99;25.67;100630.94;5053891;28;20048;-60
2023/05/19 11:03:46;;;;;;;4.47;2.00;;;;;;;21.94;25.72;100631.47;5054172;28;20116;-62
2023/05/19 11:06:25;;;;;;;7.03;2.22;;;;;;;22.13;26.33;100637.50;5053794;28;20449;-61
2023/05/19 11:08:56;;;;;;;5.25;2.40;;;;;;;22.02;26.38;100604.16;5053495;28;20036;-57
2023/05/19 11:11:21;;;;;;;3.42;1.80;;;;;;;22.07;25.79;100625.44;5053146;28;20037;-59
2023/05/19 11:13:53;;;;;;;7.30;2.00;;;;;;;21.96;25.36;100628.59;5054193;28;20131;-60
2023/05/19 11:16:33;;;;;;;8.20;2.53;;;;;;;21.96;26.27;100625.84;5053473;28;20081;-65
2023/05/19 11:18:59;;;;;;;2.38;1.60;;;;;;;22.01;25.85;100631.59;5053183;28;20048;-60
2023/05/19 11:21:41;;;;;;;6.25;2.42;;;;;;;22.22;26.08;100626.34;5053860;28;20037;-62
2023/05/19 11:24:08;;;;;;;5.28;2.20;;;;;;;22.07;25.88;100612.66;5054074;28;20420;-61
2023/05/19 11:26:41;;;;;;;5.70;2.13;;;;;;;22.08;25.94;100606.19;5053661;28;20037;-60